createdAt,value
2023-02-19T00:01:53.857Z,12.77
2023-02-19T00:04:22.835Z,13.03
2023-02-19T00:06:51.443Z,12.97
2023-02-19T00:09:20.082Z,12.96
2023-02-19T00:11:48.451Z,12.78
2023-02-19T00:14:19.535Z,13.07
2023-02-19T00:16:47.776Z,13.08
2023-02-19T00:19:18.213Z,13.05
2023-02-19T00:21:46.523Z,12.99
2023-02-19T00:24:15.492Z,12.93
2023-02-19T00:26:45.685Z,12.71
2023-02-19T00:29:16.184Z,13.01
2023-02-19T00:31:45.241Z,12.88
2023-02-19T00:34:14.124Z,13.21
2023-02-19T00:36:42.943Z,13.17
2023-02-19T00:39:14.347Z,13.16
2023-02-19T00:41:42.443Z,12.71
2023-02-19T00:44:11.400Z,13.18
2023-02-19T00:46:46.276Z,13.05
2023-02-19T00:49:20.708Z,12.78
2023-02-19T00:51:50.625Z,12.88
2023-02-19T00:54:18.981Z,12.89
2023-02-19T00:56:47.261Z,12.93
2023-02-19T00:59:15.729Z,13.07
2023-02-19T01:01:44.999Z,13.05
2023-02-19T01:04:13.847Z,12.93
2023-02-19T01:06:42.317Z,12.76
2023-02-19T01:09:10.449Z,12.57
2023-02-19T01:11:38.432Z,12.10
2023-02-19T01:14:06.883Z,12.27
2023-02-19T01:16:35.284Z,12.52
2023-02-19T01:19:03.851Z,12.82
2023-02-19T01:21:32.222Z,12.59
2023-02-19T01:24:00.254Z,12.41
2023-02-19T01:26:31.403Z,12.27
2023-02-19T01:29:00.637Z,12.48
2023-02-19T01:31:29.496Z,11.99
2023-02-19T01:34:00.116Z,12.24
2023-02-19T01:36:29.480Z,12.14
2023-02-19T01:39:00.432Z,12.08
2023-02-19T01:41:28.804Z,12.24
2023-02-19T01:44:04.512Z,12.07
2023-02-19T01:46:34.230Z,12.25
2023-02-19T01:49:15.465Z,12.36
2023-02-19T01:51:51.755Z,11.93
2023-02-19T01:54:22.483Z,12.32
2023-02-19T01:56:51.754Z,12.12
2023-02-19T01:59:19.888Z,12.62
2023-02-19T02:01:48.128Z,12.25
2023-02-19T02:04:17.486Z,12.26
2023-02-19T02:06:53.118Z,12.36
2023-02-19T02:09:41.936Z,12.12
2023-02-19T02:12:10.558Z,12.27
2023-02-19T02:14:41.278Z,12.40
2023-02-19T02:17:18.347Z,12.31
2023-02-19T02:19:58.658Z,12.22
2023-02-19T02:22:43.629Z,12.22
2023-02-19T02:25:21.038Z,11.99
2023-02-19T02:28:05.119Z,12.20
2023-02-19T02:30:50.807Z,12.15
2023-02-19T02:33:48.401Z,12.03
2023-02-19T02:36:27.829Z,11.98
2023-02-19T02:38:57.097Z,12.06
2023-02-19T02:41:25.770Z,12.14
2023-02-19T02:43:53.741Z,11.86
2023-02-19T02:46:36.101Z,11.95
2023-02-19T02:49:22.500Z,12.05
2023-02-19T02:51:53.189Z,12.04
2023-02-19T02:54:44.150Z,12.05
2023-02-19T02:57:15.101Z,12.19
2023-02-19T02:59:45.077Z,12.02
2023-02-19T03:02:23.037Z,11.92
2023-02-19T03:05:13.401Z,11.87
2023-02-19T03:07:46.359Z,11.84
2023-02-19T03:10:20.349Z,11.81
2023-02-19T03:13:09.707Z,11.85
2023-02-19T03:16:02.677Z,11.47
2023-02-19T03:18:50.132Z,11.83
2023-02-19T03:21:19.836Z,11.80
2023-02-19T03:24:07.265Z,11.55
2023-02-19T03:26:37.136Z,11.54
2023-02-19T03:29:24.161Z,11.76
2023-02-19T03:31:58.293Z,11.54
2023-02-19T03:34:42.995Z,11.52
2023-02-19T03:37:15.705Z,11.22
2023-02-19T03:39:47.168Z,11.47
2023-02-19T03:43:00.806Z,10.92
2023-02-19T03:45:35.569Z,11.32
2023-02-19T03:48:04.171Z,11.36
2023-02-19T03:51:17.187Z,11.09
2023-02-19T03:53:49.157Z,11.31
2023-02-19T03:56:35.146Z,11.16
2023-02-19T03:59:41.397Z,11.18
2023-02-19T04:02:15.570Z,10.93
2023-02-19T04:04:47.768Z,10.78
2023-02-19T04:07:15.868Z,10.98
2023-02-19T04:09:47.746Z,10.78
2023-02-19T04:12:17.203Z,10.76
2023-02-19T04:15:01.920Z,10.71
2023-02-19T04:18:08.256Z,11.16
2023-02-19T04:20:45.271Z,11.06
2023-02-19T04:23:15.512Z,11.04
2023-02-19T04:25:46.104Z,10.94
2023-02-19T04:28:15.098Z,11.23
2023-02-19T04:30:44.070Z,10.97
2023-02-19T04:33:12.108Z,10.98
2023-02-19T04:35:40.128Z,10.73
2023-02-19T04:38:08.631Z,10.89
2023-02-19T04:40:36.547Z,10.55
2023-02-19T04:43:04.394Z,10.73
2023-02-19T04:45:32.690Z,10.83
2023-02-19T04:48:00.564Z,11.26
2023-02-19T04:50:28.506Z,11.20
2023-02-19T04:52:57.011Z,11.06
2023-02-19T04:55:24.954Z,11.44
2023-02-19T04:57:53.027Z,11.19
2023-02-19T05:00:21.457Z,11.22
2023-02-19T05:02:49.631Z,11.61
2023-02-19T05:05:17.728Z,11.02
2023-02-19T05:07:46.085Z,11.32
2023-02-19T05:10:14.053Z,11.32
2023-02-19T05:12:41.951Z,11.17
2023-02-19T05:15:10.225Z,11.15
2023-02-19T05:17:38.186Z,10.95
2023-02-19T05:20:06.669Z,11.04
2023-02-19T05:22:34.992Z,11.23
2023-02-19T05:25:02.965Z,10.96
2023-02-19T05:27:31.629Z,11.34
2023-02-19T05:30:00.031Z,10.78
2023-02-19T05:32:28.014Z,10.84
2023-02-19T05:34:55.981Z,10.48
2023-02-19T05:37:24.285Z,10.26
2023-02-19T05:39:52.215Z,9.86
2023-02-19T05:42:20.123Z,10.09
2023-02-19T05:44:48.422Z,10.11
2023-02-19T05:47:16.435Z,10.42
2023-02-19T05:49:44.384Z,10.21
2023-02-19T05:52:12.833Z,10.21
2023-02-19T05:54:40.780Z,9.89
2023-02-19T05:57:08.594Z,9.94
2023-02-19T05:59:37.093Z,10.27
2023-02-19T06:02:05.064Z,10.03
2023-02-19T06:04:33.356Z,10.16
2023-02-19T06:07:01.422Z,10.58
2023-02-19T06:09:29.515Z,10.65
2023-02-19T06:11:57.893Z,10.68
2023-02-19T06:14:25.840Z,10.20
2023-02-19T06:16:53.744Z,10.53
2023-02-19T06:19:22.068Z,10.53
2023-02-19T06:21:52.697Z,10.52
2023-02-19T06:24:20.795Z,10.91
2023-02-19T06:26:49.544Z,11.22
2023-02-19T06:29:17.840Z,11.05
2023-02-19T06:31:46.232Z,11.51
2023-02-19T06:34:14.712Z,11.25
2023-02-19T06:36:42.818Z,10.79
2023-02-19T06:39:11.056Z,11.41
2023-02-19T06:41:39.432Z,10.78
2023-02-19T06:44:07.309Z,10.32
2023-02-19T06:46:35.911Z,11.18
2023-02-19T06:49:05.314Z,10.79
2023-02-19T06:51:33.852Z,10.59
2023-02-19T06:54:04.646Z,10.53
2023-02-19T06:56:35.442Z,10.74
2023-02-19T06:59:05.712Z,11.31
2023-02-19T07:01:35.699Z,10.83
2023-02-19T07:04:04.832Z,10.47
2023-02-19T07:06:34.748Z,10.63
2023-02-19T07:09:03.997Z,10.86
2023-02-19T07:11:33.915Z,10.30
2023-02-19T07:14:03.826Z,10.70
2023-02-19T07:16:32.002Z,10.18
2023-02-19T07:19:00.892Z,10.73
2023-02-19T07:21:30.123Z,11.07
2023-02-19T07:23:58.501Z,10.98
2023-02-19T07:26:26.554Z,11.11
2023-02-19T07:28:54.975Z,11.38
2023-02-19T07:31:24.281Z,11.53
2023-02-19T07:33:52.928Z,11.52
2023-02-19T07:36:22.752Z,11.71
2023-02-19T07:38:57.780Z,11.56
2023-02-19T07:41:27.436Z,11.54
2023-02-19T07:43:57.312Z,11.67
2023-02-19T07:46:25.790Z,11.62
2023-02-19T07:48:53.703Z,11.81
2023-02-19T07:51:22.073Z,11.61
2023-02-19T07:53:50.905Z,11.75
2023-02-19T07:56:19.954Z,11.56
2023-02-19T07:58:48.047Z,11.30
2023-02-19T08:01:42.080Z,11.78
2023-02-19T08:04:11.494Z,11.71
2023-02-19T08:06:39.509Z,11.70
2023-02-19T08:09:07.553Z,11.64
2023-02-19T08:11:54.190Z,11.45
2023-02-19T08:14:28.569Z,11.81
2023-02-19T08:16:57.167Z,11.53
2023-02-19T08:19:25.477Z,11.41
2023-02-19T08:21:53.810Z,11.05
2023-02-19T08:24:22.289Z,11.02
2023-02-19T08:26:50.299Z,10.99
2023-02-19T08:29:18.762Z,10.68
2023-02-19T08:31:47.307Z,10.68
2023-02-19T08:34:15.258Z,10.34
2023-02-19T08:36:44.385Z,10.53
2023-02-19T08:39:12.696Z,10.38
2023-02-19T08:41:40.704Z,10.73
2023-02-19T08:44:08.760Z,10.80
2023-02-19T08:46:37.056Z,10.99
2023-02-19T08:49:04.955Z,10.33
2023-02-19T08:51:32.877Z,10.68
2023-02-19T08:54:03.932Z,10.48
2023-02-19T08:56:31.835Z,10.50
2023-02-19T08:58:59.845Z,10.26
2023-02-19T09:01:28.461Z,10.91
2023-02-19T09:03:56.426Z,10.48
2023-02-19T09:06:24.541Z,10.38
2023-02-19T09:08:52.803Z,10.12
2023-02-19T09:11:20.925Z,10.90
2023-02-19T09:13:48.993Z,10.24
2023-02-19T09:16:17.315Z,10.54
2023-02-19T09:18:46.037Z,10.33
2023-02-19T09:21:14.226Z,10.54
2023-02-19T09:23:42.803Z,10.51
2023-02-19T09:26:11.685Z,10.40
2023-02-19T09:28:42.064Z,10.16
2023-02-19T09:31:15.943Z,10.68
2023-02-19T09:33:48.028Z,10.77
2023-02-19T09:36:17.308Z,10.96
2023-02-19T09:38:45.550Z,10.63
2023-02-19T09:41:32.790Z,10.74
2023-02-19T09:44:03.483Z,10.61
2023-02-19T09:46:35.700Z,10.88
2023-02-19T09:49:08.241Z,10.80
2023-02-19T09:51:38.092Z,10.59
2023-02-19T09:54:10.062Z,10.79
2023-02-19T09:56:38.329Z,10.57
2023-02-19T09:59:08.033Z,10.96
2023-02-19T10:01:38.283Z,11.08
2023-02-19T10:15:39.697Z,12.49
2023-02-19T10:18:11.127Z,12.67
2023-02-19T10:20:39.899Z,12.95
2023-02-19T10:23:10.543Z,13.25
2023-02-19T10:25:43.255Z,13.19
2023-02-19T10:28:19.227Z,13.60
2023-02-19T10:30:52.711Z,13.63
2023-02-19T10:33:21.718Z,14.36
2023-02-19T10:36:21.526Z,14.91
2023-02-19T10:38:49.921Z,16.12
2023-02-19T10:41:22.720Z,16.47
2023-02-19T10:44:07.106Z,16.78
2023-02-19T10:46:43.924Z,16.44
2023-02-19T10:49:33.008Z,16.95
2023-02-19T10:52:05.732Z,17.32
2023-02-19T10:54:35.967Z,17.37
2023-02-19T10:57:16.395Z,18.71
2023-02-19T11:00:01.304Z,18.99
2023-02-19T11:02:30.755Z,19.96
2023-02-19T11:05:17.299Z,19.84
2023-02-19T11:07:48.005Z,20.05
2023-02-19T11:10:38.743Z,19.58
2023-02-19T11:13:07.756Z,18.25
2023-02-19T11:15:37.153Z,18.44
2023-02-19T11:18:14.162Z,18.72
2023-02-19T11:20:54.592Z,19.17
2023-02-19T11:23:29.073Z,17.71
2023-02-19T11:26:00.670Z,17.46
2023-02-19T11:28:35.866Z,16.79
2023-02-19T11:31:35.786Z,15.39
2023-02-19T11:34:29.792Z,16.43
2023-02-19T11:37:10.264Z,17.77
2023-02-19T11:39:40.234Z,18.36
2023-02-19T11:42:20.723Z,19.50
2023-02-19T11:44:48.818Z,20.03
2023-02-19T11:47:39.006Z,20.30
2023-02-19T11:50:25.350Z,21.00
2023-02-19T11:53:32.276Z,20.67
2023-02-19T11:56:22.166Z,21.38
2023-02-19T11:59:02.653Z,19.71
2023-02-19T12:01:50.655Z,19.06
2023-02-19T12:04:56.218Z,19.36
2023-02-19T12:07:33.318Z,19.85
2023-02-19T12:10:19.111Z,19.79
2023-02-19T12:12:56.145Z,19.77
2023-02-19T12:15:30.472Z,20.14
2023-02-19T12:18:17.061Z,19.61
2023-02-19T12:21:24.656Z,18.52
2023-02-19T12:24:12.120Z,18.96
2023-02-19T12:27:54.644Z,18.13
2023-02-19T12:30:46.231Z,17.02
2023-02-19T12:33:33.452Z,15.60
2023-02-19T12:36:04.058Z,15.80
2023-02-19T12:38:45.499Z,16.19
2023-02-19T12:41:28.668Z,16.09
2023-02-19T12:44:04.841Z,15.13
2023-02-19T12:46:36.541Z,16.00
2023-02-19T12:49:16.981Z,15.90
2023-02-19T12:51:50.533Z,15.06
2023-02-19T12:54:19.010Z,15.60
2023-02-19T12:57:07.117Z,15.41
2023-02-19T12:59:40.803Z,16.09
2023-02-19T13:02:46.174Z,15.66
2023-02-19T13:05:42.275Z,15.20
2023-02-19T13:08:14.884Z,15.30
2023-02-19T13:11:00.072Z,15.53
2023-02-19T13:13:34.412Z,15.81
2023-02-19T13:16:07.825Z,15.61
2023-02-19T13:18:41.987Z,15.72
2023-02-19T13:21:12.161Z,15.94
2023-02-19T13:24:01.795Z,16.09
2023-02-19T13:26:55.720Z,16.17
2023-02-19T13:29:47.021Z,16.56
2023-02-19T13:32:21.675Z,16.82
2023-02-19T13:35:18.292Z,17.01
2023-02-19T13:37:47.166Z,16.13
2023-02-19T13:40:35.264Z,16.70
2023-02-19T13:43:06.279Z,16.08
2023-02-19T13:45:35.550Z,16.49
2023-02-19T13:48:24.196Z,15.82
2023-02-19T13:51:24.917Z,15.23
2023-02-19T13:53:56.285Z,14.66
2023-02-19T13:56:30.274Z,15.02
2023-02-19T13:59:12.645Z,14.71
2023-02-19T14:01:50.262Z,14.25
2023-02-19T14:04:47.736Z,13.93
2023-02-19T14:07:15.546Z,11.76
2023-02-19T14:09:47.000Z,11.62
2023-02-19T14:12:16.095Z,10.91
2023-02-19T14:14:55.266Z,10.79
2023-02-19T14:17:39.556Z,10.97
2023-02-19T14:20:16.871Z,10.11
2023-02-19T14:22:57.087Z,10.26
2023-02-19T14:25:30.898Z,9.93
2023-02-19T14:28:06.277Z,9.99
2023-02-19T14:30:46.812Z,10.27
2023-02-19T14:33:16.976Z,10.14
2023-02-19T14:35:47.754Z,10.32
2023-02-19T14:38:21.210Z,10.24
2023-02-19T14:40:50.558Z,10.31
2023-02-19T14:43:20.319Z,10.22
2023-02-19T14:45:53.771Z,10.37
2023-02-19T14:48:30.472Z,10.67
2023-02-19T14:51:08.305Z,10.65
2023-02-19T14:53:42.270Z,10.65
2023-02-19T14:56:20.852Z,10.81
2023-02-19T14:59:12.017Z,11.05
2023-02-19T15:01:40.682Z,10.85
2023-02-19T15:04:25.566Z,10.98
2023-02-19T15:06:56.876Z,10.93
2023-02-19T15:09:30.991Z,10.79
2023-02-19T15:12:00.188Z,10.92
2023-02-19T15:14:30.894Z,10.81
2023-02-19T15:17:01.971Z,10.66
2023-02-19T15:19:33.751Z,10.62
2023-02-19T15:22:02.238Z,10.53
2023-02-19T15:24:30.769Z,10.88
2023-02-19T15:26:58.920Z,10.94
2023-02-19T15:29:28.201Z,10.78
2023-02-19T15:31:58.983Z,11.04
2023-02-19T15:34:29.088Z,10.88
2023-02-19T15:36:59.503Z,10.98
2023-02-19T15:39:34.913Z,10.76
2023-02-19T15:42:05.092Z,10.66
2023-02-19T15:44:59.464Z,10.64
2023-02-19T15:47:33.520Z,10.61
2023-02-19T15:50:11.775Z,10.65
2023-02-19T15:52:59.718Z,10.46
2023-02-19T15:55:42.102Z,10.53
2023-02-19T15:58:19.025Z,10.63
2023-02-19T16:00:50.902Z,10.18
2023-02-19T16:03:24.019Z,10.15
2023-02-19T16:06:14.320Z,10.09
2023-02-19T16:08:44.813Z,10.53
2023-02-19T16:11:24.983Z,10.25
2023-02-19T16:13:54.197Z,10.29
2023-02-19T16:16:30.029Z,10.24
2023-02-19T16:18:58.592Z,10.22
2023-02-19T16:21:27.232Z,10.43
2023-02-19T16:24:21.318Z,10.41
2023-02-19T16:26:50.446Z,10.52
2023-02-19T16:29:29.957Z,10.49
2023-02-19T16:32:04.053Z,10.56
2023-02-19T16:34:42.045Z,10.72
2023-02-19T16:37:30.404Z,10.55
2023-02-19T16:40:07.594Z,10.33
2023-02-19T16:43:01.251Z,10.46
2023-02-19T16:45:29.181Z,10.40
2023-02-19T16:47:57.575Z,10.40
2023-02-19T16:50:27.206Z,10.55
2023-02-19T16:52:58.141Z,10.07
2023-02-19T16:55:27.432Z,10.40
2023-02-19T16:57:55.786Z,10.85
2023-02-19T17:00:25.809Z,10.64
2023-02-19T17:02:57.253Z,10.53
2023-02-19T17:05:26.982Z,10.20
2023-02-19T17:07:56.001Z,10.22
2023-02-19T17:10:26.015Z,10.61
2023-02-19T17:12:55.394Z,10.63
2023-02-19T17:15:25.576Z,10.48
2023-02-19T17:17:53.436Z,9.46
2023-02-19T17:20:28.361Z,9.34
2023-02-19T17:22:56.692Z,9.06
2023-02-19T17:25:24.655Z,9.21
2023-02-19T17:27:52.684Z,8.84
2023-02-19T17:30:27.662Z,9.21
2023-02-19T17:32:55.856Z,9.30
2023-02-19T17:35:25.170Z,9.15
2023-02-19T17:37:55.656Z,9.32
2023-02-19T17:40:33.412Z,8.90
2023-02-19T17:43:02.472Z,9.24
2023-02-19T17:45:30.626Z,8.61
2023-02-19T17:47:59.997Z,8.91
2023-02-19T17:50:31.470Z,8.75
2023-02-19T17:52:59.326Z,8.82
2023-02-19T17:55:27.844Z,8.35
2023-02-19T17:57:56.250Z,8.25
2023-02-19T18:00:29.473Z,8.49
2023-02-19T18:02:57.959Z,8.51
2023-02-19T18:05:25.906Z,8.30
2023-02-19T18:07:53.939Z,8.43
2023-02-19T18:10:25.927Z,8.14
2023-02-19T18:12:53.917Z,8.58
2023-02-19T18:15:26.953Z,8.60
2023-02-19T18:17:56.105Z,8.59
2023-02-19T18:20:27.045Z,8.77
2023-02-19T18:22:55.968Z,8.43
2023-02-19T18:25:24.971Z,8.59
2023-02-19T18:27:53.323Z,8.06
2023-02-19T18:30:22.992Z,8.36
2023-02-19T18:32:53.544Z,8.18
2023-02-19T18:35:21.809Z,7.87
2023-02-19T18:37:51.823Z,7.79
2023-02-19T18:40:21.849Z,7.66
2023-02-19T18:42:49.729Z,7.81
2023-02-19T18:45:20.983Z,7.90
2023-02-19T18:47:50.491Z,8.07
2023-02-19T18:50:21.097Z,7.92
2023-02-19T18:52:49.420Z,7.95
2023-02-19T18:55:17.685Z,8.36
2023-02-19T18:57:49.620Z,8.04
2023-02-19T19:00:20.777Z,8.08
2023-02-19T19:02:50.944Z,7.96
2023-02-19T19:05:23.682Z,8.28
2023-02-19T19:07:57.486Z,8.39
2023-02-19T19:10:26.536Z,8.53
2023-02-19T19:12:54.627Z,8.12
2023-02-19T19:15:23.228Z,8.23
2023-02-19T19:17:51.943Z,8.06
2023-02-19T19:20:21.602Z,7.95
2023-02-19T19:22:51.471Z,7.90
2023-02-19T19:25:21.070Z,7.93
2023-02-19T19:27:52.246Z,7.83
2023-02-19T19:30:20.967Z,7.97
2023-02-19T19:32:49.871Z,8.10
2023-02-19T19:35:18.752Z,8.29
2023-02-19T19:37:47.229Z,7.85
2023-02-19T19:40:18.796Z,8.37
2023-02-19T19:42:48.579Z,7.80
2023-02-19T19:45:16.661Z,8.21
2023-02-19T19:47:44.619Z,8.28
2023-02-19T19:50:14.642Z,8.42
2023-02-19T19:52:42.556Z,8.22
2023-02-19T19:55:10.820Z,8.19
2023-02-19T19:57:40.850Z,8.13
2023-02-19T20:00:09.586Z,7.96
2023-02-19T20:02:40.301Z,7.90
2023-02-19T20:05:08.658Z,8.06
2023-02-19T20:07:36.758Z,8.07
2023-02-19T20:10:05.842Z,8.15
2023-02-19T20:12:34.244Z,8.25
2023-02-19T20:15:02.589Z,7.99
2023-02-19T20:17:30.874Z,7.85
2023-02-19T20:19:59.325Z,7.77
2023-02-19T20:22:27.518Z,7.86
2023-02-19T20:24:55.677Z,7.55
2023-02-19T20:27:24.915Z,7.10
2023-02-19T20:29:52.851Z,7.50
2023-02-19T20:32:21.288Z,7.48
2023-02-19T20:34:49.792Z,7.45
2023-02-19T20:37:17.708Z,7.31
2023-02-19T20:39:45.792Z,7.05
2023-02-19T20:42:16.741Z,7.18
2023-02-19T20:44:46.643Z,7.27
2023-02-19T20:47:16.421Z,6.82
2023-02-19T20:49:46.461Z,6.76
2023-02-19T20:52:16.487Z,6.96
2023-02-19T20:54:45.191Z,6.89
2023-02-19T20:57:14.623Z,7.03
2023-02-19T20:59:44.414Z,7.06
2023-02-19T21:02:18.707Z,6.80
2023-02-19T21:04:46.733Z,6.82
2023-02-19T21:07:15.099Z,6.75
2023-02-19T21:09:43.287Z,6.22
2023-02-19T21:12:12.730Z,6.35
2023-02-19T21:14:41.049Z,5.79
2023-02-19T21:17:09.072Z,5.81
2023-02-19T21:19:37.004Z,5.54
2023-02-19T21:22:05.239Z,5.45
2023-02-19T21:24:33.195Z,5.37
2023-02-19T21:27:01.184Z,5.41
2023-02-19T21:29:29.574Z,5.60
2023-02-19T21:31:58.261Z,5.57
2023-02-19T21:34:28.421Z,5.29
2023-02-19T21:36:56.823Z,5.00
2023-02-19T21:39:27.809Z,5.42
2023-02-19T21:41:58.890Z,5.39
2023-02-19T21:44:26.744Z,5.08
2023-02-19T21:46:54.725Z,5.55
2023-02-19T21:49:23.450Z,5.28
2023-02-19T21:51:52.975Z,5.63
2023-02-19T21:54:24.928Z,5.51
2023-02-19T21:56:54.357Z,5.62
2023-02-19T21:59:23.276Z,5.09
2023-02-19T22:01:51.421Z,5.02
2023-02-19T22:04:21.773Z,5.02
2023-02-19T22:06:50.183Z,5.28
2023-02-19T22:09:18.046Z,5.07
2023-02-19T22:11:46.251Z,5.13
2023-02-19T22:14:14.154Z,4.66
2023-02-19T22:16:42.123Z,5.13
2023-02-19T22:19:12.153Z,4.91
2023-02-19T22:21:43.863Z,4.88
2023-02-19T22:24:17.758Z,4.96
2023-02-19T22:26:46.017Z,4.76
2023-02-19T22:29:15.659Z,4.94
2023-02-19T22:31:43.797Z,4.74
2023-02-19T22:34:11.956Z,5.08
2023-02-19T22:36:40.597Z,4.63
2023-02-19T22:39:15.236Z,4.90
2023-02-19T22:41:43.928Z,4.88
2023-02-19T22:44:12.436Z,4.84
2023-02-19T22:46:40.254Z,4.66
2023-02-19T22:49:08.523Z,4.85
2023-02-19T22:51:36.500Z,4.81
2023-02-19T22:54:04.452Z,4.63
2023-02-19T22:56:32.905Z,4.76
2023-02-19T22:59:00.862Z,4.78
2023-02-19T23:01:28.900Z,4.77
2023-02-19T23:04:00.440Z,4.83
2023-02-19T23:06:33.327Z,4.81
2023-02-19T23:09:17.192Z,4.64
2023-02-19T23:11:45.584Z,4.33
2023-02-19T23:14:16.291Z,4.62
2023-02-19T23:16:44.270Z,4.40
2023-02-19T23:19:15.337Z,4.30
2023-02-19T23:21:45.009Z,4.25
2023-02-19T23:24:13.973Z,4.37
2023-02-19T23:26:46.158Z,4.30
2023-02-19T23:29:19.578Z,4.44
2023-02-19T23:31:47.636Z,4.41
2023-02-19T23:34:16.422Z,4.16
2023-02-19T23:36:46.512Z,4.62
2023-02-19T23:39:16.416Z,4.45
2023-02-19T23:41:54.728Z,4.67
2023-02-19T23:44:24.161Z,4.42
2023-02-19T23:46:53.112Z,4.50
2023-02-19T23:49:21.487Z,4.51
2023-02-19T23:51:49.407Z,4.56
2023-02-19T23:54:17.793Z,4.55
2023-02-19T23:56:45.800Z,4.68
2023-02-19T23:59:13.915Z,4.37
